createdAt,value
2018-02-21T00:01:53.948Z,78.87
2018-02-21T00:04:23.221Z,65.73
2018-02-21T00:06:52.458Z,67.93
2018-02-21T00:09:22.707Z,62.70
2018-02-21T00:11:52.050Z,65.83
2018-02-21T00:14:21.326Z,65.57
2018-02-21T00:16:50.608Z,59.60
2018-02-21T00:19:19.975Z,56.53
2018-02-21T00:21:50.094Z,57.63
2018-02-21T00:24:19.367Z,65.80
2018-02-21T00:26:48.632Z,69.63
2018-02-21T00:29:17.890Z,71.90
2018-02-21T00:31:47.199Z,57.43
2018-02-21T00:34:16.448Z,64.50
2018-02-21T00:36:45.700Z,58.53
2018-02-21T00:39:14.972Z,75.83
2018-02-21T00:41:44.217Z,69.60
2018-02-21T00:44:13.498Z,59.77
2018-02-21T00:46:42.752Z,58.10
2018-02-21T00:49:12.069Z,55.57
2018-02-21T00:51:41.329Z,55.17
2018-02-21T00:54:11.398Z,66.63
2018-02-21T00:56:40.699Z,65.90
2018-02-21T00:59:09.979Z,57.20
2018-02-21T01:01:39.262Z,57.20
2018-02-21T01:04:08.509Z,64.10
2018-02-21T01:06:37.967Z,59.33
2018-02-21T01:09:08.067Z,64.20
2018-02-21T01:11:37.349Z,72.23
2018-02-21T01:14:06.614Z,58.70
2018-02-21T01:16:35.976Z,68.67
2018-02-21T01:19:06.170Z,67.57
2018-02-21T01:21:35.466Z,68.43
2018-02-21T01:24:04.735Z,72.90
2018-02-21T01:26:33.984Z,64.90
2018-02-21T01:29:03.297Z,66.00
2018-02-21T01:31:32.515Z,82.13
2018-02-21T01:34:01.802Z,70.03
2018-02-21T01:36:31.086Z,69.80
2018-02-21T01:39:00.369Z,69.07
2018-02-21T01:41:29.630Z,85.57
2018-02-21T01:43:58.896Z,64.20
2018-02-21T01:46:28.345Z,76.20
2018-02-21T01:48:57.621Z,69.90
2018-02-21T01:51:26.893Z,78.43
2018-02-21T01:53:56.154Z,64.60
2018-02-21T01:56:25.413Z,89.00
2018-02-21T01:58:54.665Z,69.70
2018-02-21T02:01:23.922Z,70.73
2018-02-21T02:03:53.249Z,71.37
2018-02-21T02:06:22.530Z,76.73
2018-02-21T02:08:51.772Z,70.07
2018-02-21T02:11:21.046Z,99.13
2018-02-21T02:13:50.316Z,65.23
2018-02-21T02:16:19.554Z,69.17
2018-02-21T02:18:48.796Z,77.77
2018-02-21T02:21:18.198Z,65.93
2018-02-21T02:23:47.429Z,77.97
2018-02-21T02:26:16.734Z,64.63
2018-02-21T02:28:45.993Z,66.13
2018-02-21T02:31:15.555Z,73.23
2018-02-21T02:33:44.790Z,71.33
2018-02-21T02:36:14.028Z,63.60
2018-02-21T02:41:48.701Z,62.50
2018-02-21T02:44:18.705Z,61.50
2018-02-21T02:46:47.977Z,61.87
2018-02-21T02:49:17.420Z,71.97
2018-02-21T02:51:47.428Z,65.83
2018-02-21T02:54:16.706Z,63.90
2018-02-21T02:56:47.556Z,60.77
2018-02-21T02:59:16.905Z,65.67
2018-02-21T03:01:46.997Z,56.80
2018-02-21T03:04:16.298Z,73.07
2018-02-21T03:06:46.598Z,62.80
2018-02-21T03:09:15.841Z,59.00
2018-02-21T03:11:45.102Z,74.33
2018-02-21T03:14:14.424Z,68.50
2018-02-21T03:16:43.691Z,70.17
2018-02-21T03:19:12.941Z,63.63
2018-02-21T03:21:43.034Z,83.47
2018-02-21T03:24:12.306Z,77.00
2018-02-21T03:26:41.570Z,77.33
2018-02-21T03:29:10.798Z,76.30
2018-02-21T03:31:39.370Z,61.57
2018-02-21T03:34:08.380Z,70.67
2018-02-21T03:36:37.650Z,84.23
2018-02-21T03:39:06.922Z,84.83
2018-02-21T03:41:36.957Z,64.63
2018-02-21T03:44:06.203Z,78.30
2018-02-21T03:46:35.474Z,66.37
2018-02-21T03:49:05.470Z,76.57
2018-02-21T03:51:34.742Z,86.97
2018-02-21T03:54:04.010Z,84.60
2018-02-21T03:56:34.089Z,74.17
2018-02-21T03:59:04.125Z,72.07
2018-02-21T04:01:33.363Z,79.53
2018-02-21T04:04:02.614Z,85.30
2018-02-21T04:06:32.645Z,81.77
2018-02-21T04:09:02.033Z,78.17
2018-02-21T04:11:32.030Z,92.67
2018-02-21T04:14:01.561Z,75.93
2018-02-21T04:16:30.844Z,74.50
2018-02-21T04:19:00.098Z,78.20
2018-02-21T04:21:29.521Z,79.07
2018-02-21T04:23:58.749Z,90.80
2018-02-21T04:26:28.026Z,69.37
2018-02-21T04:28:57.295Z,74.03
2018-02-21T04:31:26.564Z,93.93
2018-02-21T04:33:56.593Z,73.37
2018-02-21T04:36:25.862Z,73.90
2018-02-21T04:38:55.177Z,74.87
2018-02-21T04:41:24.428Z,83.13
2018-02-21T04:43:53.774Z,74.70
2018-02-21T04:46:23.112Z,79.37
2018-02-21T04:48:52.388Z,82.60
2018-02-21T04:51:21.654Z,87.27
2018-02-21T04:53:50.906Z,80.23
2018-02-21T04:56:25.257Z,83.00
2018-02-21T05:01:55.946Z,69.50
2018-02-21T05:04:25.229Z,69.60
2018-02-21T05:06:54.471Z,67.17
2018-02-21T05:09:24.506Z,71.90
2018-02-21T05:11:53.776Z,72.63
2018-02-21T05:14:23.078Z,69.10
2018-02-21T05:16:52.325Z,83.33
2018-02-21T05:19:21.590Z,66.57
2018-02-21T05:21:51.601Z,73.27
2018-02-21T05:24:20.901Z,62.77
2018-02-21T05:26:50.304Z,69.03
2018-02-21T05:29:20.334Z,71.77
2018-02-21T05:31:49.659Z,70.67
2018-02-21T05:34:18.958Z,70.63
2018-02-21T05:36:48.233Z,59.90
2018-02-21T05:39:17.638Z,82.67
2018-02-21T05:41:47.659Z,69.27
2018-02-21T05:44:16.906Z,61.67
2018-02-21T05:46:46.331Z,68.40
2018-02-21T05:49:15.602Z,67.30
2018-02-21T05:51:44.855Z,67.33
2018-02-21T05:54:14.136Z,67.00
2018-02-21T05:56:43.380Z,73.17
2018-02-21T05:59:12.664Z,72.37
2018-02-21T06:01:42.697Z,66.30
2018-02-21T06:04:11.946Z,83.10
2018-02-21T06:06:41.402Z,63.83
2018-02-21T06:09:10.690Z,60.20
2018-02-21T06:11:40.739Z,62.20
2018-02-21T06:14:10.093Z,73.47
2018-02-21T06:16:39.371Z,73.77
2018-02-21T06:19:08.640Z,67.90
2018-02-21T06:21:37.884Z,75.87
2018-02-21T06:24:07.143Z,77.13
2018-02-21T06:26:36.417Z,63.03
2018-02-21T06:29:06.439Z,64.87
2018-02-21T06:31:35.714Z,67.70
2018-02-21T06:34:04.984Z,80.97
2018-02-21T06:36:34.264Z,76.13
2018-02-21T06:39:03.552Z,59.83
2018-02-21T06:41:33.043Z,82.73
2018-02-21T06:44:03.097Z,60.47
2018-02-21T06:46:32.371Z,54.60
2018-02-21T06:49:01.647Z,62.23
2018-02-21T06:51:30.913Z,75.93
2018-02-21T06:54:00.177Z,53.73
2018-02-21T06:56:29.437Z,70.53
2018-02-21T06:58:58.735Z,70.27
2018-02-21T07:01:27.992Z,54.17
2018-02-21T07:03:57.441Z,76.13
2018-02-21T07:06:26.782Z,64.17
2018-02-21T07:08:55.988Z,65.50
2018-02-21T07:11:25.253Z,65.83
2018-02-21T07:13:54.737Z,61.03
2018-02-21T07:16:24.009Z,56.97
2018-02-21T07:18:53.243Z,62.20
2018-02-21T07:21:22.519Z,70.87
2018-02-21T07:23:52.358Z,61.97
2018-02-21T07:26:21.617Z,54.30
2018-02-21T07:28:50.856Z,47.17
2018-02-21T07:31:20.106Z,57.60
2018-02-21T07:33:49.384Z,61.53
2018-02-21T07:36:18.629Z,59.80
2018-02-21T07:38:47.894Z,54.70
2018-02-21T07:41:17.198Z,56.20
2018-02-21T07:43:46.498Z,61.23
2018-02-21T07:46:15.734Z,46.83
2018-02-21T07:48:44.986Z,49.23
2018-02-21T07:51:14.246Z,59.40
2018-02-21T07:53:43.506Z,54.10
2018-02-21T07:56:12.767Z,64.17
2018-02-21T07:58:42.058Z,61.63
2018-02-21T08:01:11.383Z,52.77
2018-02-21T08:03:40.708Z,57.97
2018-02-21T08:06:09.978Z,68.67
2018-02-21T08:08:39.231Z,70.67
2018-02-21T08:11:08.506Z,65.67
2018-02-21T08:13:38.525Z,68.20
2018-02-21T08:16:07.858Z,60.73
2018-02-21T08:18:37.107Z,65.63
2018-02-21T08:21:06.419Z,62.50
2018-02-21T08:23:37.159Z,69.50
2018-02-21T08:26:06.438Z,68.90
2018-02-21T08:28:37.795Z,73.60
2018-02-21T08:31:07.839Z,66.50
2018-02-21T08:33:38.146Z,63.40
2018-02-21T08:36:08.012Z,64.93
2018-02-21T08:38:37.534Z,62.63
2018-02-21T08:41:06.817Z,66.83
2018-02-21T08:43:36.198Z,63.33
2018-02-21T08:46:05.500Z,56.53
2018-02-21T08:48:35.564Z,54.67
2018-02-21T08:51:04.814Z,62.97
2018-02-21T08:53:34.120Z,67.60
2018-02-21T08:56:03.461Z,63.07
2018-02-21T08:58:33.390Z,60.37
2018-02-21T09:01:02.769Z,68.30
2018-02-21T09:03:32.070Z,67.37
2018-02-21T09:06:02.066Z,64.87
2018-02-21T09:08:31.330Z,66.37
2018-02-21T09:11:00.652Z,62.07
2018-02-21T09:13:29.921Z,52.00
2018-02-21T09:15:59.262Z,71.47
2018-02-21T09:18:28.533Z,70.20
2018-02-21T09:20:57.805Z,66.67
2018-02-21T09:23:27.075Z,62.97
2018-02-21T09:25:56.352Z,58.23
2018-02-21T09:28:26.405Z,57.43
2018-02-21T09:30:55.881Z,63.13
2018-02-21T09:33:25.144Z,55.57
2018-02-21T09:35:54.626Z,61.13
2018-02-21T09:38:23.871Z,58.83
2018-02-21T09:40:53.933Z,55.90
2018-02-21T09:43:23.188Z,62.10
2018-02-21T09:45:53.260Z,51.50
2018-02-21T09:48:22.529Z,60.70
2018-02-21T09:50:52.574Z,55.23
2018-02-21T09:53:21.866Z,55.53
2018-02-21T09:55:51.345Z,53.17
2018-02-21T09:58:20.695Z,59.37
2018-02-21T10:00:49.980Z,64.73
2018-02-21T10:03:19.302Z,60.60
2018-02-21T10:05:48.621Z,46.87
2018-02-21T10:08:17.906Z,54.30
2018-02-21T10:10:47.182Z,50.60
2018-02-21T10:13:16.461Z,47.73
2018-02-21T10:15:45.758Z,52.53
2018-02-21T10:18:15.019Z,52.90
2018-02-21T10:20:44.302Z,55.07
2018-02-21T10:23:13.639Z,64.60
2018-02-21T10:25:42.941Z,53.77
2018-02-21T10:28:12.224Z,58.90
2018-02-21T10:30:41.529Z,54.03
2018-02-21T10:33:10.872Z,40.70
2018-02-21T10:35:41.696Z,58.77
2018-02-21T10:38:11.040Z,49.40
2018-02-21T10:40:40.302Z,48.83
2018-02-21T10:43:09.562Z,39.67
2018-02-21T10:45:38.846Z,49.10
2018-02-21T10:48:08.106Z,50.27
2018-02-21T10:50:37.642Z,58.47
2018-02-21T10:53:06.926Z,45.53
2018-02-21T10:55:36.262Z,51.27
2018-02-21T10:58:05.544Z,55.10
2018-02-21T11:00:40.484Z,55.33
2018-02-21T11:03:09.749Z,44.97
2018-02-21T11:05:39.046Z,48.77
2018-02-21T11:08:08.306Z,46.43
2018-02-21T11:10:37.771Z,50.17
2018-02-21T11:13:07.811Z,49.27
2018-02-21T11:15:37.126Z,48.07
2018-02-21T11:18:06.414Z,56.10
2018-02-21T11:20:39.701Z,47.27
2018-02-21T11:23:09.058Z,46.77
2018-02-21T11:25:38.630Z,46.00
2018-02-21T11:28:08.179Z,47.40
2018-02-21T11:30:37.517Z,39.67
2018-02-21T11:33:06.784Z,46.97
2018-02-21T11:35:36.103Z,41.37
2018-02-21T11:38:06.606Z,43.07
2018-02-21T11:40:37.648Z,43.67
2018-02-21T11:43:08.625Z,41.50
2018-02-21T11:45:38.096Z,45.70
2018-02-21T11:48:07.349Z,40.53
2018-02-21T11:50:36.633Z,42.87
2018-02-21T11:53:05.894Z,40.07
2018-02-21T11:55:35.183Z,38.10
2018-02-21T11:58:04.434Z,42.60
2018-02-21T12:00:33.724Z,39.90
2018-02-21T12:03:03.005Z,37.40
2018-02-21T12:05:32.257Z,37.43
2018-02-21T12:08:01.534Z,44.50
2018-02-21T12:10:30.808Z,35.60
2018-02-21T12:13:00.099Z,35.93
2018-02-21T12:15:29.354Z,41.57
2018-02-21T12:17:58.634Z,39.77
2018-02-21T12:20:28.645Z,42.07
2018-02-21T12:22:58.098Z,35.07
2018-02-21T12:25:27.360Z,44.30
2018-02-21T12:27:57.469Z,38.07
2018-02-21T12:30:26.735Z,40.10
2018-02-21T12:32:56.099Z,36.53
2018-02-21T12:35:26.122Z,36.73
2018-02-21T12:37:55.431Z,36.70
2018-02-21T12:40:30.168Z,36.00
2018-02-21T12:42:59.427Z,39.10
2018-02-21T12:45:29.589Z,34.33
2018-02-21T12:47:58.866Z,40.33
2018-02-21T12:50:28.896Z,42.60
2018-02-21T12:52:58.166Z,32.87
2018-02-21T12:55:28.276Z,36.80
2018-02-21T12:57:57.728Z,34.77
2018-02-21T13:00:27.013Z,36.30
2018-02-21T13:02:57.073Z,36.60
2018-02-21T13:05:26.342Z,37.17
2018-02-21T13:07:55.592Z,36.20
2018-02-21T13:10:24.866Z,39.40
2018-02-21T13:12:54.138Z,35.97
2018-02-21T13:15:23.396Z,37.67
2018-02-21T13:17:52.656Z,37.43
2018-02-21T13:20:21.900Z,42.50
2018-02-21T13:22:51.149Z,44.93
2018-02-21T13:25:20.422Z,39.20
2018-02-21T13:27:49.671Z,35.87
2018-02-21T13:30:18.948Z,41.10
2018-02-21T13:32:48.198Z,34.40
2018-02-21T13:35:17.441Z,38.40
2018-02-21T13:37:47.505Z,38.30
2018-02-21T13:40:16.718Z,33.77
2018-02-21T13:42:46.010Z,43.33
2018-02-21T13:45:15.321Z,37.20
2018-02-21T13:47:44.637Z,33.07
2018-02-21T13:50:13.825Z,29.40
2018-02-21T13:52:43.070Z,36.40
2018-02-21T13:55:12.329Z,36.43
2018-02-21T13:57:43.099Z,35.23
2018-02-21T14:00:12.370Z,36.20
2018-02-21T14:02:41.619Z,38.40
2018-02-21T14:05:11.110Z,47.43
2018-02-21T14:07:41.143Z,34.90
2018-02-21T14:10:10.631Z,47.27
2018-02-21T14:12:39.890Z,35.03
2018-02-21T14:15:09.207Z,42.70
2018-02-21T14:17:38.469Z,46.90
2018-02-21T14:20:07.745Z,44.40
2018-02-21T14:22:37.759Z,38.07
2018-02-21T14:25:07.373Z,38.17
2018-02-21T14:27:36.571Z,39.77
2018-02-21T14:30:05.879Z,50.10
2018-02-21T14:32:35.170Z,39.97
2018-02-21T14:35:04.451Z,39.87
2018-02-21T14:37:33.720Z,45.30
2018-02-21T14:40:02.989Z,51.27
2018-02-21T14:42:32.254Z,32.70
2018-02-21T14:45:02.323Z,35.23
2018-02-21T14:47:31.575Z,50.43
2018-02-21T14:50:00.839Z,45.10
2018-02-21T14:52:30.107Z,40.70
2018-02-21T14:54:59.366Z,39.37
2018-02-21T14:57:28.621Z,39.80
2018-02-21T14:59:57.888Z,43.40
2018-02-21T15:02:27.143Z,41.40
2018-02-21T15:04:56.406Z,44.73
2018-02-21T15:07:26.468Z,39.63
2018-02-21T15:09:55.822Z,39.03
2018-02-21T15:12:25.850Z,49.67
2018-02-21T15:14:55.094Z,45.40
2018-02-21T15:17:24.391Z,44.63
2018-02-21T15:19:53.642Z,32.23
2018-02-21T15:22:23.742Z,41.60
2018-02-21T15:24:53.812Z,44.97
2018-02-21T15:27:23.895Z,46.27
2018-02-21T15:29:53.134Z,38.87
2018-02-21T15:32:22.549Z,36.70
2018-02-21T15:34:51.804Z,43.23
2018-02-21T15:37:21.054Z,39.37
2018-02-21T15:39:50.516Z,41.53
2018-02-21T15:42:19.797Z,45.27
2018-02-21T15:44:49.102Z,39.90
2018-02-21T15:47:18.542Z,49.97
2018-02-21T15:49:47.806Z,41.97
2018-02-21T15:52:17.174Z,45.77
2018-02-21T15:54:46.477Z,30.20
2018-02-21T15:57:15.713Z,42.70
2018-02-21T15:59:45.215Z,41.13
2018-02-21T16:02:14.461Z,34.57
2018-02-21T16:04:43.817Z,46.97
2018-02-21T16:07:13.210Z,43.33
2018-02-21T16:09:42.733Z,49.83
2018-02-21T16:12:12.169Z,52.70
2018-02-21T16:14:42.731Z,38.70
2018-02-21T16:17:12.365Z,42.03
2018-02-21T16:19:41.613Z,39.47
2018-02-21T16:22:10.899Z,49.93
2018-02-21T16:24:40.158Z,43.13
2018-02-21T16:27:09.436Z,39.13
2018-02-21T16:29:38.682Z,44.33
2018-02-21T16:32:07.925Z,37.00
2018-02-21T16:34:37.194Z,46.00
2018-02-21T16:37:06.474Z,48.13
2018-02-21T16:39:35.808Z,41.37
2018-02-21T16:42:06.529Z,44.47
2018-02-21T16:44:35.803Z,50.00
2018-02-21T16:47:05.142Z,44.00
2018-02-21T16:49:34.377Z,40.37
2018-02-21T16:52:03.652Z,33.03
2018-02-21T16:54:33.674Z,40.07
2018-02-21T16:57:03.022Z,39.23
2018-02-21T16:59:32.282Z,46.07
2018-02-21T17:02:01.544Z,46.27
2018-02-21T17:04:30.876Z,43.20
2018-02-21T17:07:00.301Z,42.20
2018-02-21T17:09:29.590Z,42.30
2018-02-21T17:11:59.123Z,39.40
2018-02-21T17:14:28.454Z,48.17
2018-02-21T17:16:57.946Z,37.40
2018-02-21T17:19:27.299Z,41.80
2018-02-21T17:21:56.666Z,34.47
2018-02-21T17:24:25.968Z,32.27
2018-02-21T17:26:55.246Z,44.40
2018-02-21T17:29:24.580Z,38.20
2018-02-21T17:31:53.861Z,44.60
2018-02-21T17:34:23.631Z,36.23
2018-02-21T17:36:53.119Z,37.50
2018-02-21T17:39:22.424Z,42.07
2018-02-21T17:41:52.441Z,46.87
2018-02-21T17:44:22.477Z,37.43
2018-02-21T17:46:51.762Z,33.07
2018-02-21T17:49:21.970Z,32.73
2018-02-21T17:51:51.342Z,34.90
2018-02-21T17:54:21.357Z,42.20
2018-02-21T17:56:50.621Z,40.43
2018-02-21T17:59:19.921Z,23.93
2018-02-21T18:01:49.159Z,33.33
2018-02-21T18:04:18.425Z,31.80
2018-02-21T18:06:47.677Z,41.43
2018-02-21T18:09:16.944Z,33.40
2018-02-21T18:11:46.211Z,41.97
2018-02-21T18:14:16.325Z,30.40
2018-02-21T18:16:46.369Z,42.57
2018-02-21T18:19:15.615Z,43.17
2018-02-21T18:21:49.855Z,36.17
2018-02-21T18:24:19.128Z,30.87
2018-02-21T18:26:48.409Z,41.40
2018-02-21T18:29:17.665Z,39.17
2018-02-21T18:31:47.089Z,33.10
2018-02-21T18:34:17.239Z,38.67
2018-02-21T18:36:47.180Z,40.17
2018-02-21T18:39:16.610Z,35.10
2018-02-21T18:41:45.926Z,35.47
2018-02-21T18:44:15.209Z,38.20
2018-02-21T18:46:44.486Z,39.10
2018-02-21T18:49:13.775Z,33.93
2018-02-21T18:51:43.031Z,36.10
2018-02-21T18:54:13.096Z,38.63
2018-02-21T18:56:42.313Z,27.83
2018-02-21T18:59:11.609Z,30.03
2018-02-21T19:01:40.867Z,29.87
2018-02-21T19:04:10.105Z,31.17
2018-02-21T19:06:39.420Z,31.07
2018-02-21T19:09:08.762Z,33.70
2018-02-21T19:11:41.280Z,28.67
2018-02-21T19:14:11.496Z,29.07
2018-02-21T19:16:40.792Z,24.07
2018-02-21T19:19:10.049Z,26.20
2018-02-21T19:21:39.314Z,30.57
2018-02-21T19:24:09.157Z,25.53
2018-02-21T19:26:38.414Z,28.70
2018-02-21T19:29:07.997Z,23.77
2018-02-21T19:31:37.283Z,21.47
2018-02-21T19:34:07.990Z,24.50
2018-02-21T19:36:37.255Z,26.90
2018-02-21T19:39:07.760Z,26.80
2018-02-21T19:41:37.012Z,33.77
2018-02-21T19:44:07.127Z,26.97
2018-02-21T19:46:36.397Z,27.73
2018-02-21T19:49:05.629Z,23.87
2018-02-21T19:51:34.900Z,28.03
2018-02-21T19:54:04.366Z,18.90
2018-02-21T19:56:34.402Z,27.77
2018-02-21T19:59:03.668Z,32.20
2018-02-21T20:01:32.949Z,24.20
2018-02-21T20:04:02.242Z,20.83
2018-02-21T20:06:31.541Z,25.33
2018-02-21T20:09:00.842Z,26.63
2018-02-21T20:11:30.141Z,22.90
2018-02-21T20:13:59.410Z,17.93
2018-02-21T20:16:29.461Z,21.00
2018-02-21T20:18:58.785Z,21.30
2018-02-21T20:21:28.037Z,25.93
2018-02-21T20:23:57.281Z,18.30
2018-02-21T20:26:26.574Z,23.93
2018-02-21T20:28:55.816Z,22.77
2018-02-21T20:31:25.851Z,21.27
2018-02-21T20:33:55.101Z,20.23
2018-02-21T20:36:24.336Z,21.20
2018-02-21T20:38:54.402Z,23.20
2018-02-21T20:41:23.662Z,24.17
2018-02-21T20:43:53.679Z,20.90
2018-02-21T20:46:23.194Z,24.20
2018-02-21T20:48:52.431Z,21.07
2018-02-21T20:51:21.742Z,25.23
2018-02-21T20:53:51.003Z,23.43
2018-02-21T20:56:20.326Z,20.93
2018-02-21T20:58:49.585Z,27.60
2018-02-21T21:01:19.636Z,30.07
2018-02-21T21:03:48.908Z,29.00
2018-02-21T21:06:18.948Z,37.10
2018-02-21T21:08:48.275Z,27.47
2018-02-21T21:11:17.525Z,34.07
2018-02-21T21:13:47.580Z,33.03
2018-02-21T21:16:16.900Z,44.23
2018-02-21T21:18:46.196Z,36.40
2018-02-21T21:21:15.556Z,39.87
2018-02-21T21:23:44.968Z,33.13
2018-02-21T21:26:14.366Z,45.83
2018-02-21T21:28:43.683Z,38.93
2018-02-21T21:31:13.102Z,33.67
2018-02-21T21:33:43.005Z,40.47
2018-02-21T21:36:13.071Z,33.47
2018-02-21T21:38:42.338Z,41.77
2018-02-21T21:41:11.838Z,37.97
2018-02-21T21:43:41.133Z,51.43
2018-02-21T21:46:10.387Z,35.57
2018-02-21T21:48:39.640Z,35.27
2018-02-21T21:51:08.910Z,49.23
2018-02-21T21:53:38.928Z,38.27
2018-02-21T21:56:08.173Z,38.27
2018-02-21T21:58:37.471Z,41.30
2018-02-21T22:01:06.769Z,37.90
2018-02-21T22:03:36.226Z,38.23
2018-02-21T22:06:05.522Z,36.30
2018-02-21T22:08:35.226Z,43.30
2018-02-21T22:11:04.488Z,50.10
2018-02-21T22:13:33.942Z,39.60
2018-02-21T22:16:03.237Z,39.80
2018-02-21T22:18:32.543Z,35.43
2018-02-21T22:21:01.907Z,37.83
2018-02-21T22:23:31.211Z,32.40
2018-02-21T22:26:00.452Z,34.30
2018-02-21T22:28:29.789Z,39.77
2018-02-21T22:30:59.191Z,41.47
2018-02-21T22:33:28.446Z,40.23
2018-02-21T22:35:57.707Z,35.60
2018-02-21T22:38:26.975Z,33.07
2018-02-21T22:40:57.056Z,45.37
2018-02-21T22:43:26.328Z,39.60
2018-02-21T22:45:55.691Z,48.00
2018-02-21T22:48:24.970Z,36.13
2018-02-21T22:50:54.238Z,43.80
2018-02-21T22:53:23.489Z,36.70
2018-02-21T22:55:52.762Z,30.07
2018-02-21T22:58:22.047Z,35.10
2018-02-21T23:00:51.307Z,31.50
2018-02-21T23:03:21.337Z,34.77
2018-02-21T23:05:50.610Z,32.60
2018-02-21T23:08:19.887Z,31.60
2018-02-21T23:10:49.163Z,36.60
2018-02-21T23:13:18.400Z,29.57
2018-02-21T23:15:48.156Z,34.50
2018-02-21T23:18:17.426Z,36.53
2018-02-21T23:20:46.728Z,33.87
2018-02-21T23:23:16.809Z,41.40
2018-02-21T23:25:46.101Z,36.83
2018-02-21T23:28:15.369Z,41.07
2018-02-21T23:30:44.645Z,39.77
2018-02-21T23:33:14.052Z,35.23
2018-02-21T23:35:43.471Z,42.00
2018-02-21T23:38:12.729Z,29.93
2018-02-21T23:40:42.160Z,35.57
2018-02-21T23:43:12.201Z,33.07
2018-02-21T23:45:41.502Z,32.70
2018-02-21T23:48:10.783Z,30.30
2018-02-21T23:50:40.054Z,31.93
2018-02-21T23:53:09.291Z,30.40
2018-02-21T23:55:39.320Z,32.20
2018-02-21T23:58:08.603Z,29.57
